Terminal Aerodrome Forecast
Issued by NWS

Home | Current Version | Previous Version | Text Only | Print | Product List | Glossary On
Versions: 1 2 3 4 5 6 7 8 9 10 11 12 13 14 15 16 17 18 19 20 21 22 23 24 25
000
FTUS43 KSGF 022300
TAFJLN
TAF
KJLN 022335Z 0300/0324 14010KT P6SM OVC020
     FM030700 16008KT 5SM BR OVC012 WS020/21042KT
      TEMPO 0309/0312 3SM -RA BR OVC008
     FM031200 18012KT 4SM -RA BR OVC008
     FM032100 21012KT 5SM BR OVC015=

USA.gov is the U.S. government's official web portal to all federal, state and local government web resources and services.